Firth, NE (68358)

11:53 AM CDT on August 27, 2016 (GMT -0500)
Woodland Plaza | | Change Station

Elev 1283 ft 40.63 °N, 96.63 °W | Updated 1 minute ago

Scattered Clouds
Scattered Clouds
79.9 °F
Feels Like 82 °F
N
4.2
Wind Variable Wind from SSW

Today
High -- | Low -- °F
--% Chance of Precip.
Yesterday
High -- | Low -- °F
Precip. -- in
Pressure 30.04 in
Visibility 10.0 miles
Clouds Scattered Clouds 2200 ft
Heat Index 82 °F
Dew Point 68 °F
Humidity 66%
Rainfall 0.00 in
Snow Depth Not available.
6:49 AM 8:05 PM
Waning Crescent, 23% visible
METAR KBIE 271635Z AUTO 00000KT 10SM SCT022 24/19 A3004 RMK AO2 T02360185
Pressure 30.04 in
Visibility 10.0 miles
Clouds Scattered Clouds 2200 ft
Heat Index 82 °F
Dew Point 68 °F
Humidity 66%
Rainfall 0.00 in
Snow Depth Not available.
6:49 AM 8:05 PM
Waning Crescent, 23% visible
METAR KBIE 271635Z AUTO 00000KT 10SM SCT022 24/19 A3004 RMK AO2 T02360185

10-Day Weather Forecast

Almanac

Astronomy

Aug. 27, 2016 Rise Set
Actual Time
Civil Twilight
Nautical Twilight
Astronomical Twilight
Moon
Length of Visible Light
Length of Day
Tomorrow will be .
, % of the Moon is Illuminated

Today's Extremes

State Highs State Lows

Community

WunderPhotos

Upload Photos

1,935,377 photos uploaded!

WunderBlog® & News

Nearby

Air Quality

  Air Quality AQ Index Pollutant
Not available.

Snow Depth

Station Depth Elevation

Earthquake Activity

City Distance Mag. Time & Date
Minimum magnitude displayed is 2.5.

Coastal Water Temperatures

Place Temperature

Stations

Nearby Weather Stations

Station Location Temp. Windchill Dew Point Humidity Wind Precip. Elev Updated Type
                   

Watches & Warnings

There are currently no watches in effect.